Time;durP1;ratioP1;P1;durP2;ratioP2;P2;SDS_P1;SDS_P2;PMS_P1;PMS_P2;Temp;Humidity;BMP_temperature;BMP_pressure;BME280_temperature;BME280_humidity;BME280_pressure;Samples;Min_cycle;Max_cycle;Signal;HPM_P1;HPM_P2
2022/10/02 00:02:29;;;;;;;9.90;2.10;;;13.20;99.90;;;;;;5042394;28;20069;-76
2022/10/02 00:05:15;;;;;;;8.70;2.08;;;13.30;99.90;;;;;;5033116;28;20352;-75
2022/10/02 00:07:45;;;;;;;6.15;1.90;;;13.30;99.90;;;;;;5033333;28;20056;-75
2022/10/02 00:10:28;;;;;;;9.15;2.15;;;13.30;99.90;;;;;;5031137;28;20029;-76
2022/10/02 00:12:57;;;;;;;6.68;1.85;;;13.40;99.90;;;;;;5033259;28;20026;-75
2022/10/02 00:15:30;;;;;;;8.43;2.10;;;13.30;99.90;;;;;;5032349;28;20033;-75
2022/10/02 00:18:01;;;;;;;13.82;2.42;;;13.30;99.90;;;;;;5033213;28;20053;-75
2022/10/02 00:20:43;;;;;;;7.85;1.67;;;13.30;99.90;;;;;;5031882;28;20034;-75
2022/10/02 00:23:38;;;;;;;11.38;2.08;;;13.30;99.90;;;;;;5032108;28;20056;-76
2022/10/02 00:26:15;;;;;;;9.68;2.30;;;13.30;99.90;;;;;;5031358;28;20045;-76
2022/10/02 00:28:44;;;;;;;5.40;2.05;;;13.30;99.90;;;;;;5033174;28;20044;-75
2022/10/02 00:31:40;;;;;;;6.68;1.65;;;13.30;99.90;;;;;;5031206;28;20052;-75
2022/10/02 00:34:46;;;;;;;8.10;2.08;;;13.30;99.90;;;;;;5032147;28;20037;-76
2022/10/02 00:37:30;;;;;;;9.40;2.03;;;13.30;99.90;;;;;;5030865;28;20050;-75
2022/10/02 00:40:21;;;;;;;9.32;1.73;;;13.30;99.90;;;;;;5046710;28;20475;-75
2022/10/02 00:42:51;;;;;;;4.93;1.40;;;13.20;99.90;;;;;;5032463;28;20033;-75
2022/10/02 00:45:44;;;;;;;6.57;1.80;;;13.20;99.90;;;;;;5031477;28;20497;-75
2022/10/02 00:48:37;;;;;;;4.82;2.03;;;13.20;99.90;;;;;;5031770;28;20037;-75
2022/10/02 00:51:36;;;;;;;5.90;1.55;;;13.10;99.90;;;;;;5027309;28;20044;-76
2022/10/02 00:54:15;;;;;;;7.40;1.52;;;13.10;99.90;;;;;;5032050;28;20029;-76
2022/10/02 00:57:06;;;;;;;9.20;2.22;;;13.10;99.90;;;;;;5032083;28;20036;-75
2022/10/02 00:59:41;;;;;;;;;;;13.10;99.90;;;;;;5031653;28;20049;-75
2022/10/02 01:02:30;;;;;;;5.22;1.65;;;13.10;99.90;;;;;;5050879;28;19925;-75
2022/10/02 01:04:59;;;;;;;4.00;1.73;;;13.10;99.90;;;;;;5050130;28;20041;-75
2022/10/02 01:07:26;;;;;;;9.60;1.60;;;13.10;99.90;;;;;;5050556;28;20037;-75
2022/10/02 01:09:53;;;;;;;4.75;1.45;;;13.10;99.90;;;;;;5050136;28;20033;-75
2022/10/02 01:12:19;;;;;;;6.60;1.63;;;13.10;99.90;;;;;;5048777;28;20028;-75
2022/10/02 01:14:45;;;;;;;8.88;2.15;;;13.10;99.90;;;;;;5031850;28;20034;-75
2022/10/02 01:17:31;;;;;;;8.35;2.30;;;13.10;99.90;;;;;;5032747;28;20046;-75
2022/10/02 01:20:00;;;;;;;5.43;1.30;;;13.10;99.90;;;;;;5050064;28;20041;-75
2022/10/02 01:22:50;;;;;;;4.10;1.15;;;13.00;99.90;;;;;;5050419;28;20033;-75
2022/10/02 01:25:16;;;;;;;9.83;1.63;;;13.00;99.90;;;;;;5050146;28;20037;-75
2022/10/02 01:27:44;;;;;;;8.88;1.83;;;13.00;99.90;;;;;;5032047;28;20148;-75
2022/10/02 01:30:16;;;;;;;5.43;2.05;;;12.90;99.90;;;;;;5044134;28;20036;-75
2022/10/02 01:32:54;;;;;;;5.57;1.65;;;12.90;99.90;;;;;;5031937;28;20033;-75
2022/10/02 01:35:25;;;;;;;10.70;1.98;;;12.90;99.90;;;;;;5030981;28;20597;-75
2022/10/02 01:37:52;;;;;;;4.10;1.63;;;12.90;99.90;;;;;;5045948;28;20029;-75
2022/10/02 01:40:34;;;;;;;7.25;2.30;;;12.90;99.90;;;;;;5049235;28;20087;-75
2022/10/02 01:43:10;;;;;;;9.57;2.10;;;12.90;99.90;;;;;;5051715;28;20485;-75
2022/10/02 01:46:18;;;;;;;5.30;1.80;;;13.00;99.90;;;;;;5054760;28;20048;-75
2022/10/02 01:49:04;;;;;;;6.63;1.45;;;13.00;99.90;;;;;;5005800;28;20038;-75
2022/10/02 01:52:02;;;;;;;6.43;1.88;;;13.00;99.90;;;;;;5002989;28;20038;-75
2022/10/02 01:54:56;;;;;;;6.43;2.17;;;13.00;99.90;;;;;;4976957;28;20042;-74
2022/10/02 01:57:37;;;;;;;7.20;1.58;;;13.00;99.90;;;;;;5040346;28;20040;-75
2022/10/02 02:00:08;;;;;;;;;;;13.00;99.90;;;;;;5054046;28;20037;-75
2022/10/02 02:02:55;;;;;;;5.68;1.58;;;13.00;99.90;;;;;;5042132;28;19921;-74
2022/10/02 02:05:47;;;;;;;8.05;1.80;;;13.00;99.90;;;;;;5052400;28;20056;-74
2022/10/02 02:08:24;;;;;;;5.07;1.42;;;13.00;99.90;;;;;;5027485;28;20057;-74
2022/10/02 02:11:10;;;;;;;6.35;1.65;;;12.90;99.90;;;;;;5033803;28;20052;-74
2022/10/02 02:13:55;;;;;;;7.60;2.28;;;12.90;99.90;;;;;;5043648;28;20037;-74
2022/10/02 02:16:30;;;;;;;5.32;1.63;;;13.00;99.90;;;;;;5035514;28;20036;-74
2022/10/02 02:19:23;;;;;;;6.15;1.50;;;13.00;99.90;;;;;;5054119;28;20045;-74
2022/10/02 02:22:14;;;;;;;5.75;1.55;;;13.00;99.90;;;;;;5053409;28;20041;-74
2022/10/02 02:25:06;;;;;;;4.70;1.10;;;13.00;99.90;;;;;;5053089;28;20056;-74
2022/10/02 02:27:38;;;;;;;5.00;1.30;;;13.00;99.90;;;;;;5053361;28;20041;-74
2022/10/02 02:30:13;;;;;;;6.03;2.25;;;13.00;99.90;;;;;;5037478;28;20471;-75
2022/10/02 02:32:46;;;;;;;3.97;1.70;;;13.00;99.90;;;;;;5035071;28;20052;-74
2022/10/02 02:35:48;;;;;;;3.17;1.50;;;13.00;99.90;;;;;;5034127;28;20037;-74
2022/10/02 02:38:27;;;;;;;4.05;1.60;;;13.00;99.90;;;;;;5048503;28;20047;-74
2022/10/02 02:40:59;;;;;;;4.53;1.70;;;13.00;99.90;;;;;;5051782;28;20045;-75
2022/10/02 02:43:31;;;;;;;6.40;2.10;;;13.00;99.90;;;;;;5049884;28;20093;-74
2022/10/02 02:46:03;;;;;;;4.45;1.85;;;12.90;99.90;;;;;;5031744;28;20037;-75
2022/10/02 02:48:42;;;;;;;6.15;1.73;;;13.00;99.90;;;;;;5026983;28;20040;-75
2022/10/02 02:51:16;;;;;;;8.15;2.10;;;12.90;99.90;;;;;;5033833;28;20471;-75
2022/10/02 02:53:52;;;;;;;7.28;2.15;;;13.00;99.90;;;;;;5033694;28;20060;-75
2022/10/02 02:56:20;;;;;;;6.85;2.17;;;13.00;99.90;;;;;;5045579;28;20036;-75
2022/10/02 02:58:57;;;;;;;6.60;2.60;;;13.00;99.90;;;;;;5052465;28;20033;-74
2022/10/02 03:01:24;;;;;;;6.72;2.40;;;13.00;99.90;;;;;;5052984;28;20041;-75
2022/10/02 03:03:50;;;;;;;9.45;2.65;;;13.00;99.90;;;;;;5052394;28;20052;-75
2022/10/02 03:06:19;;;;;;;8.50;3.10;;;13.10;99.90;;;;;;5052993;28;20386;-75
2022/10/02 03:08:49;;;;;;;8.85;2.90;;;13.10;99.90;;;;;;5052639;28;20382;-75
2022/10/02 03:11:37;;;;;;;15.68;3.08;;;13.10;99.90;;;;;;5052794;28;20051;-74
2022/10/02 03:14:41;;;;;;;8.52;2.50;;;13.20;99.90;;;;;;5053614;28;20033;-75
2022/10/02 03:17:26;;;;;;;9.38;2.67;;;13.20;99.90;;;;;;5051594;28;20053;-75
2022/10/02 03:19:59;;;;;;;7.95;2.40;;;13.20;99.90;;;;;;5053389;28;20032;-75
2022/10/02 03:22:46;;;;;;;8.50;2.72;;;13.20;99.90;;;;;;5037643;28;20025;-75
2022/10/02 03:25:37;;;;;;;6.97;2.97;;;13.20;99.90;;;;;;5033864;28;20395;-75
2022/10/02 03:28:14;;;;;;;9.10;2.65;;;13.20;99.90;;;;;;5046962;28;20386;-74
2022/10/02 03:30:41;;;;;;;6.60;2.28;;;13.10;99.90;;;;;;5053212;28;20488;-75
2022/10/02 03:33:11;;;;;;;10.02;3.33;;;13.10;99.90;;;;;;5051886;28;20025;-75
2022/10/02 03:35:38;;;;;;;6.47;2.28;;;13.10;99.90;;;;;;5053322;28;20044;-75
2022/10/02 03:38:06;;;;;;;5.75;2.08;;;13.10;99.90;;;;;;5051788;28;20040;-75
2022/10/02 03:40:33;;;;;;;7.40;2.15;;;13.10;99.90;;;;;;5039337;28;20470;-75
2022/10/02 03:42:59;;;;;;;9.77;3.38;;;13.10;99.90;;;;;;5053229;28;20033;-74
2022/10/02 03:45:27;;;;;;;9.85;2.97;;;13.20;99.90;;;;;;5052355;28;20040;-75
2022/10/02 03:47:54;;;;;;;14.55;4.70;;;13.20;99.90;;;;;;5051133;28;20043;-75
2022/10/02 03:50:20;;;;;;;7.78;3.58;;;13.30;99.90;;;;;;5045076;28;20037;-75
2022/10/02 03:52:50;;;;;;;8.32;2.85;;;13.30;99.90;;;;;;5049209;28;20040;-75
2022/10/02 03:55:19;;;;;;;7.57;2.28;;;13.20;99.90;;;;;;5050879;28;20041;-75
2022/10/02 03:57:46;;;;;;;8.68;1.77;;;13.20;99.90;;;;;;5051697;28;20059;-75
2022/10/02 04:00:19;;;;;;;9.00;2.33;;;13.20;99.90;;;;;;5053918;28;20036;-75
2022/10/02 04:03:09;;;;;;;11.40;2.30;;;13.20;99.90;;;;;;5054810;28;20041;-75
2022/10/02 04:05:49;;;;;;;7.45;2.90;;;13.20;99.90;;;;;;5056904;28;20025;-75
2022/10/02 04:08:39;;;;;;;12.95;2.92;;;13.20;99.90;;;;;;5054483;28;20033;-74
2022/10/02 04:11:17;;;;;;;6.25;2.90;;;13.20;99.90;;;;;;5052815;28;20029;-74
2022/10/02 04:14:31;;;;;;;6.88;2.25;;;13.20;99.90;;;;;;5040702;28;20394;-75
2022/10/02 04:17:24;;;;;;;11.65;2.40;;;13.20;99.90;;;;;;5029059;28;20037;-74
2022/10/02 04:20:11;;;;;;;8.30;2.22;;;13.20;99.90;;;;;;5031575;28;20144;-75
2022/10/02 04:22:56;;;;;;;13.30;3.25;;;13.20;99.90;;;;;;5033357;28;20033;-75
2022/10/02 04:25:26;;;;;;;6.28;2.05;;;13.20;99.90;;;;;;5032306;28;20033;-75
2022/10/02 04:28:04;;;;;;;12.20;2.58;;;13.20;99.90;;;;;;5038138;28;20037;-74
2022/10/02 04:30:31;;;;;;;13.43;2.67;;;13.20;99.90;;;;;;5027598;28;20029;-75
2022/10/02 04:33:19;;;;;;;11.15;2.55;;;13.20;99.90;;;;;;5051025;28;20394;-75
2022/10/02 04:36:02;;;;;;;12.00;3.25;;;13.10;99.90;;;;;;5052477;28;20032;-75
2022/10/02 04:38:50;;;;;;;9.40;2.03;;;13.10;99.90;;;;;;5049772;28;20045;-75
2022/10/02 04:41:41;;;;;;;7.65;2.25;;;13.10;99.90;;;;;;5051204;28;20037;-75
2022/10/02 04:44:07;;;;;;;8.32;2.70;;;13.10;99.90;;;;;;5033971;28;20070;-75
2022/10/02 04:46:43;;;;;;;12.90;2.90;;;13.00;99.90;;;;;;5029687;28;20745;-75
2022/10/02 04:49:28;;;;;;;10.32;3.22;;;13.00;99.90;;;;;;5032427;28;20034;-75
2022/10/02 04:52:31;;;;;;;9.43;2.83;;;13.00;99.90;;;;;;5026628;28;20034;-75
2022/10/02 04:55:24;;;;;;;12.32;3.33;;;13.00;99.90;;;;;;5025706;28;20052;-74
2022/10/02 04:58:02;;;;;;;9.50;2.17;;;13.00;99.90;;;;;;5043076;28;20040;-74
2022/10/02 05:01:13;;;;;;;11.65;2.50;;;12.90;99.90;;;;;;5050933;28;20032;-75
2022/10/02 05:03:57;;;;;;;12.88;3.78;;;12.90;99.90;;;;;;5027954;28;20508;-74
2022/10/02 05:06:35;;;;;;;11.85;3.22;;;12.90;99.90;;;;;;5008739;28;20494;-75
2022/10/02 05:09:21;;;;;;;10.32;2.30;;;12.90;99.90;;;;;;5010614;28;20050;-75
2022/10/02 05:12:11;;;;;;;11.88;2.97;;;12.90;99.90;;;;;;5029247;28;20521;-75
2022/10/02 05:14:48;;;;;;;13.70;2.67;;;12.90;99.90;;;;;;5029073;28;20052;-75
2022/10/02 05:17:34;;;;;;;9.10;2.58;;;12.80;99.90;;;;;;5026172;28;20168;-76
2022/10/02 05:20:33;;;;;;;9.13;3.30;;;12.80;99.90;;;;;;5012468;28;20049;-75
2022/10/02 05:23:05;;;;;;;9.18;2.90;;;12.80;99.90;;;;;;5010235;28;20037;-76
2022/10/02 05:25:53;;;;;;;9.45;3.05;;;12.80;99.90;;;;;;5009329;28;20029;-75
2022/10/02 05:28:31;;;;;;;8.57;2.72;;;12.80;99.90;;;;;;5007489;28;20046;-75
2022/10/02 05:31:34;;;;;;;12.00;3.00;;;12.80;99.90;;;;;;5009248;28;20041;-75
2022/10/02 05:34:06;;;;;;;9.85;3.10;;;12.80;99.90;;;;;;5010425;28;20045;-75
2022/10/02 05:36:41;;;;;;;9.00;3.13;;;12.80;99.90;;;;;;5023699;28;20036;-75
2022/10/02 05:39:16;;;;;;;8.65;2.58;;;12.80;99.90;;;;;;5032874;28;20041;-75
2022/10/02 05:42:15;;;;;;;9.15;2.80;;;12.80;99.90;;;;;;5042957;28;20029;-75
2022/10/02 05:44:50;;;;;;;18.20;4.60;;;12.70;99.90;;;;;;5031832;28;20037;-75
2022/10/02 05:47:26;;;;;;;9.93;3.45;;;12.70;99.90;;;;;;5029803;28;20486;-75
2022/10/02 05:49:59;;;;;;;6.88;2.65;;;12.60;99.90;;;;;;5032185;28;20042;-75
2022/10/02 05:52:45;;;;;;;8.52;3.50;;;12.70;99.90;;;;;;5031231;28;20030;-75
2022/10/02 05:55:15;;;;;;;9.60;3.60;;;12.70;99.90;;;;;;5030936;28;20038;-76
2022/10/02 05:57:56;;;;;;;7.80;3.00;;;12.70;99.90;;;;;;5030701;28;20123;-78
2022/10/02 06:00:25;;;;;;;;;;;12.70;99.90;;;;;;5046523;28;20045;-78
2022/10/02 06:02:56;;;;;;;15.93;3.55;;;12.70;99.90;;;;;;5032232;28;19920;-78
2022/10/02 06:05:57;;;;;;;8.95;2.95;;;12.70;99.90;;;;;;5031269;28;20466;-78
2022/10/02 06:08:32;;;;;;;;;;;12.60;99.90;;;;;;5029179;28;20041;-78
2022/10/02 06:11:05;;;;;;;8.85;3.67;;;12.60;99.90;;;;;;5036681;28;19909;-79
2022/10/02 06:13:42;;;;;;;11.90;3.92;;;12.60;99.90;;;;;;5039641;28;20040;-78
2022/10/02 06:16:13;;;;;;;6.90;2.80;;;12.70;99.90;;;;;;5033274;28;20386;-78
2022/10/02 06:18:41;;;;;;;;;;;12.70;99.90;;;;;;5036621;28;20029;-78
2022/10/02 06:21:30;;;;;;;13.60;3.13;;;12.70;99.90;;;;;;5030045;28;19928;-78
2022/10/02 06:24:01;;;;;;;9.13;3.30;;;12.70;99.90;;;;;;5031723;28;20037;-78
2022/10/02 06:26:59;;;;;;;14.63;4.35;;;12.70;99.90;;;;;;5030313;28;20030;-77
2022/10/02 06:29:38;;;;;;;14.23;5.45;;;12.70;99.90;;;;;;5038299;28;20036;-77
2022/10/02 06:32:36;;;;;;;13.27;4.68;;;12.70;99.90;;;;;;5036504;28;20040;-78
2022/10/02 06:35:12;;;;;;;8.60;3.65;;;12.80;99.90;;;;;;5036440;28;20040;-77
2022/10/02 06:37:46;;;;;;;10.48;3.22;;;12.70;99.90;;;;;;5040382;28;20033;-77
2022/10/02 06:40:44;;;;;;;9.20;4.32;;;12.70;99.90;;;;;;5040183;28;20037;-78
2022/10/02 06:43:16;;;;;;;10.18;3.47;;;12.70;99.90;;;;;;5033319;28;20048;-78
2022/10/02 06:46:03;;;;;;;14.15;3.83;;;12.80;99.90;;;;;;5035171;28;20033;-78
2022/10/02 06:49:07;;;;;;;11.05;3.70;;;12.80;99.90;;;;;;5033468;28;20037;-78
2022/10/02 06:52:00;;;;;;;15.88;3.35;;;12.70;99.90;;;;;;5034254;28;20033;-77
2022/10/02 06:54:52;;;;;;;7.07;3.28;;;12.70;99.90;;;;;;5034651;28;20037;-77
2022/10/02 06:57:21;;;;;;;6.85;3.35;;;12.80;99.90;;;;;;5033006;28;20501;-77
2022/10/02 07:00:16;;;;;;;10.00;3.58;;;12.70;99.90;;;;;;5041447;28;20469;-77
2022/10/02 07:03:01;;;;;;;9.07;3.75;;;12.80;99.90;;;;;;5039910;28;20494;-79
2022/10/02 07:05:52;;;;;;;8.60;3.70;;;12.80;99.90;;;;;;5042436;28;20036;-78
2022/10/02 07:08:26;;;;;;;;;;;12.80;99.90;;;;;;5050972;28;20049;-77
2022/10/02 07:11:00;;;;;;;10.60;3.78;;;12.80;99.90;;;;;;5053557;28;19909;-78
2022/10/02 07:13:48;;;;;;;8.90;3.70;;;12.80;99.90;;;;;;5053221;28;20029;-78
2022/10/02 07:16:18;;;;;;;7.43;3.00;;;12.80;99.90;;;;;;5052266;28;20037;-77
2022/10/02 07:18:52;;;;;;;10.80;4.53;;;12.80;99.90;;;;;;5053199;28;20040;-77
2022/10/02 07:21:38;;;;;;;11.73;4.80;;;12.70;99.90;;;;;;5051745;28;20040;-77
2022/10/02 07:24:34;;;;;;;7.85;4.53;;;12.80;99.90;;;;;;5053551;28;20025;-77
2022/10/02 07:27:13;;;;;;;10.48;4.32;;;12.80;99.90;;;;;;5048690;28;20045;-77
2022/10/02 07:30:04;;;;;;;11.25;4.38;;;12.80;99.90;;;;;;5052711;28;20048;-77
2022/10/02 07:32:39;;;;;;;11.85;4.32;;;12.80;99.90;;;;;;5046479;28;20048;-76
2022/10/02 07:35:26;;;;;;;11.73;3.92;;;12.80;99.90;;;;;;5053012;28;20037;-76
2022/10/02 07:38:06;;;;;;;12.93;3.72;;;12.90;99.90;;;;;;5052103;28;20072;-76
2022/10/02 07:40:47;;;;;;;6.77;3.53;;;12.90;99.90;;;;;;5051653;28;20398;-78
2022/10/02 07:43:16;;;;;;;;;;;12.90;99.90;;;;;;5052332;28;20267;-77
2022/10/02 07:46:08;;;;;;;6.78;3.38;;;12.80;99.90;;;;;;5052695;28;20314;-77
2022/10/02 07:48:40;;;;;;;9.95;3.85;;;12.90;99.90;;;;;;5044924;28;20104;-76
2022/10/02 07:54:59;;;;;;;10.20;3.25;;;12.90;99.90;;;;;;5033727;28;20045;-76
2022/10/02 07:57:43;;;;;;;7.55;3.63;;;12.90;99.90;;;;;;5028246;28;20037;-76
2022/10/02 08:00:17;;;;;;;9.20;4.00;;;13.00;99.90;;;;;;5029938;28;20054;-75
2022/10/02 08:03:03;;;;;;;7.65;3.83;;;12.90;99.90;;;;;;5032206;28;20053;-76
2022/10/02 08:05:33;;;;;;;8.23;3.45;;;12.90;99.90;;;;;;5033139;28;20451;-76
2022/10/02 08:08:05;;;;;;;11.18;4.07;;;12.90;99.90;;;;;;5035324;28;20037;-75
2022/10/02 08:10:37;;;;;;;10.82;3.63;;;12.90;99.90;;;;;;5040925;28;20037;-76
2022/10/02 08:13:23;;;;;;;6.15;3.55;;;12.90;99.90;;;;;;5035074;28;20033;-76
2022/10/02 08:15:53;;;;;;;6.40;3.55;;;12.90;99.90;;;;;;5035566;28;20056;-76
2022/10/02 08:18:31;;;;;;;6.75;3.55;;;12.90;99.90;;;;;;5028973;28;20025;-79
2022/10/02 08:20:58;;;;;;;10.60;4.00;;;12.90;99.90;;;;;;5030959;28;20069;-77
2022/10/02 08:23:36;;;;;;;13.88;6.05;;;12.90;99.90;;;;;;5032447;28;20025;-78
2022/10/02 08:26:18;;;;;;;13.27;4.97;;;12.90;99.90;;;;;;5031554;28;20042;-79
2022/10/02 08:28:59;;;;;;;12.38;7.15;;;13.00;99.90;;;;;;5032274;28;20033;-78
2022/10/02 08:31:25;;;;;;;;;;;13.00;99.90;;;;;;5033735;28;20053;-79
2022/10/02 08:33:51;;;;;;;8.82;4.88;;;13.00;99.90;;;;;;5033085;28;20373;-77
2022/10/02 08:36:27;;;;;;;6.88;4.55;;;13.00;99.90;;;;;;5025195;28;20041;-77
2022/10/02 08:39:30;;;;;;;11.02;5.13;;;13.00;99.90;;;;;;5032720;28;20033;-76
2022/10/02 08:42:22;;;;;;;7.90;4.40;;;13.10;99.90;;;;;;5032977;28;20038;-77
2022/10/02 08:44:54;;;;;;;8.30;5.47;;;13.00;99.90;;;;;;5031819;28;20057;-77
2022/10/02 08:47:32;;;;;;;9.38;5.75;;;13.10;99.90;;;;;;5045771;28;20037;-79
2022/10/02 08:50:07;;;;;;;5.22;3.67;;;13.10;99.90;;;;;;5035314;28;20056;-76
2022/10/02 08:52:51;;;;;;;5.97;3.67;;;13.10;99.90;;;;;;5051973;28;20056;-77
2022/10/02 08:55:33;;;;;;;5.53;3.35;;;13.10;99.90;;;;;;5053907;28;20036;-76
2022/10/02 08:58:20;;;;;;;6.70;4.03;;;13.20;99.90;;;;;;5047823;28;20045;-76
2022/10/02 09:00:54;;;;;;;4.95;2.55;;;13.20;99.90;;;;;;5042080;28;20049;-76
2022/10/02 09:04:05;;;;;;;4.38;2.72;;;13.30;99.90;;;;;;5059298;28;20044;-79
2022/10/02 09:06:31;;;;;;;7.57;3.33;;;13.30;99.90;;;;;;5031062;28;20042;-76
2022/10/02 09:09:06;;;;;;;6.45;4.05;;;13.20;99.90;;;;;;5032310;28;20036;-76
2022/10/02 09:11:38;;;;;;;6.68;3.30;;;13.20;99.90;;;;;;5031568;28;20030;-76
2022/10/02 09:14:42;;;;;;;6.82;4.97;;;13.20;99.90;;;;;;5032605;28;20046;-75
2022/10/02 09:17:11;;;;;;;7.72;3.47;;;13.20;99.90;;;;;;5027535;28;20037;-76
2022/10/02 09:20:24;;;;;;;6.07;2.80;;;13.10;99.90;;;;;;5031399;28;20537;-76
2022/10/02 09:23:26;;;;;;;3.83;1.98;;;13.20;99.90;;;;;;5029458;28;20049;-77
2022/10/02 09:26:07;;;;;;;4.85;3.08;;;13.10;99.90;;;;;;4992021;28;20041;-77
2022/10/02 09:28:45;;;;;;;5.72;2.92;;;13.10;99.90;;;;;;5029331;28;20041;-76
2022/10/02 09:31:39;;;;;;;22.23;13.25;;;13.20;99.90;;;;;;5031082;28;20386;-76
2022/10/02 09:34:19;;;;;;;67.35;37.45;;;13.20;99.90;;;;;;5033695;28;20393;-76
2022/10/02 09:36:55;;;;;;;31.83;18.05;;;13.30;99.90;;;;;;5029950;28;20044;-77
2022/10/02 09:39:39;;;;;;;122.30;61.50;;;13.30;99.90;;;;;;5035753;28;20049;-81
2022/10/02 09:42:22;;;;;;;45.67;24.10;;;13.30;99.90;;;;;;5042188;28;20029;-77
2022/10/02 09:45:27;;;;;;;109.28;54.05;;;13.20;99.90;;;;;;5043765;28;20052;-74
2022/10/02 09:48:19;;;;;;;177.20;101.55;;;13.20;99.90;;;;;;5041434;28;20382;-75
2022/10/02 09:51:39;;;;;;;26.38;16.02;;;13.20;99.90;;;;;;5029952;28;20596;-74
2022/10/02 09:54:20;;;;;;;77.45;45.22;;;13.20;99.90;;;;;;5005953;28;20042;-75
2022/10/02 09:57:19;;;;;;;40.00;22.80;;;13.20;99.90;;;;;;5028005;28;20036;-75
2022/10/02 10:00:14;;;;;;;46.15;25.02;;;13.20;99.90;;;;;;5024428;28;20154;-75
2022/10/02 10:03:11;;;;;;;17.75;11.75;;;13.30;99.90;;;;;;5011194;28;20392;-75
2022/10/02 10:06:09;;;;;;;10.35;6.50;;;13.20;99.90;;;;;;5041346;28;20045;-75
2022/10/02 10:09:05;;;;;;;10.52;6.68;;;13.20;99.90;;;;;;5053514;28;20037;-74
2022/10/02 10:11:37;;;;;;;3.42;2.35;;;13.20;99.90;;;;;;5034203;28;20045;-74
2022/10/02 10:14:22;;;;;;;2.88;1.50;;;13.10;99.90;;;;;;5043535;28;20033;-73
2022/10/02 10:17:12;;;;;;;4.88;3.03;;;13.10;99.90;;;;;;5033250;28;20056;-73
2022/10/02 10:20:07;;;;;;;6.20;3.17;;;13.10;99.90;;;;;;5034496;28;20045;-73
2022/10/02 10:22:45;;;;;;;7.80;4.28;;;13.10;99.90;;;;;;5034283;28;20390;-73
2022/10/02 10:25:11;;;;;;;7.80;5.60;;;13.10;99.90;;;;;;5035382;28;20045;-73
2022/10/02 10:27:55;;;;;;;10.38;4.90;;;13.20;99.90;;;;;;5033100;28;20041;-73
2022/10/02 10:30:31;;;;;;;11.55;9.73;;;13.20;99.90;;;;;;5034442;28;20026;-72
2022/10/02 10:33:23;;;;;;;11.15;9.27;;;13.20;99.90;;;;;;5035160;28;20049;-73
2022/10/02 10:38:31;;;;;;;10.77;7.82;;;13.20;99.90;;;;;;5033886;28;20041;-73
2022/10/02 10:49:34;;;;;;;6.47;3.70;;;13.50;99.90;;;;;;5166521;22;20046;-73
2022/10/02 10:52:06;;;;;;;8.63;5.93;;;13.60;99.90;;;;;;4988965;28;20038;-75
2022/10/02 10:54:47;;;;;;;6.53;4.45;;;13.60;99.90;;;;;;4987961;28;20049;-71
2022/10/02 10:57:28;;;;;;;5.25;3.72;;;13.60;99.90;;;;;;4996287;28;20030;-72
2022/10/02 11:00:23;;;;;;;7.05;5.03;;;13.60;99.90;;;;;;4993440;28;20279;-72
2022/10/02 11:03:16;;;;;;;6.45;3.75;;;13.60;99.90;;;;;;4989112;28;20030;-73
2022/10/02 11:06:20;;;;;;;6.55;3.90;;;13.70;99.90;;;;;;4999534;28;20049;-74
2022/10/02 11:09:15;;;;;;;8.43;3.83;;;13.70;99.90;;;;;;5004305;28;20030;-73
2022/10/02 11:12:08;;;;;;;3.53;2.42;;;13.70;99.90;;;;;;4997804;28;20035;-73
2022/10/02 11:15:01;;;;;;;5.68;3.55;;;13.60;99.90;;;;;;4995126;28;20050;-73
2022/10/02 11:17:36;;;;;;;4.90;3.38;;;13.70;99.90;;;;;;4994806;28;20057;-74
2022/10/02 11:20:15;;;;;;;4.65;2.90;;;13.70;99.90;;;;;;4994153;28;20415;-72
2022/10/02 11:22:52;;;;;;;5.53;4.10;;;13.70;99.90;;;;;;4994096;28;20034;-74
2022/10/02 11:25:53;;;;;;;7.18;4.80;;;13.80;99.90;;;;;;4994244;28;20035;-72
2022/10/02 11:28:50;;;;;;;5.88;4.50;;;13.80;99.90;;;;;;4965686;28;20050;-75
2022/10/02 11:31:34;;;;;;;4.53;3.47;;;13.80;99.90;;;;;;4977377;28;20049;-72
2022/10/02 11:34:23;;;;;;;3.88;2.75;;;13.70;99.90;;;;;;4993374;28;20452;-72
2022/10/02 11:37:23;;;;;;;5.25;3.65;;;13.70;99.90;;;;;;4993656;28;20526;-73
2022/10/02 11:40:23;;;;;;;4.30;3.00;;;13.60;99.90;;;;;;4991475;28;20046;-73
2022/10/02 11:43:27;;;;;;;5.20;2.80;;;13.70;99.90;;;;;;4993594;28;20031;-71
2022/10/02 11:46:11;;;;;;;5.55;3.00;;;13.70;99.90;;;;;;4970235;28;20046;-72
2022/10/02 11:48:56;;;;;;;8.07;4.45;;;13.70;99.90;;;;;;4992376;28;20065;-80
2022/10/02 11:51:45;;;;;;;7.97;3.88;;;13.70;99.90;;;;;;4992720;28;20046;-73
2022/10/02 11:54:44;;;;;;;7.72;3.00;;;13.70;99.90;;;;;;4994009;28;20030;-72
2022/10/02 11:57:49;;;;;;;8.13;3.85;;;13.60;99.90;;;;;;4993267;28;20053;-73
2022/10/02 12:00:34;;;;;;;5.38;3.35;;;13.50;99.90;;;;;;4991196;28;20057;-72
2022/10/02 12:03:08;;;;;;;5.38;3.65;;;13.50;99.90;;;;;;4993053;28;20033;-73
2022/10/02 12:05:59;;;;;;;7.22;4.38;;;13.60;99.90;;;;;;4993621;28;20030;-72
2022/10/02 12:08:47;;;;;;;7.95;4.65;;;13.70;99.90;;;;;;4992975;28;20043;-73
2022/10/02 12:11:53;;;;;;;9.75;4.50;;;13.70;99.90;;;;;;4993757;28;20042;-73
2022/10/02 12:14:41;;;;;;;7.82;5.47;;;13.80;99.90;;;;;;4986816;28;20093;-73
2022/10/02 12:17:24;;;;;;;10.07;7.35;;;13.80;99.90;;;;;;4994046;28;20031;-73
2022/10/02 12:29:13;;;;;;;7.35;4.18;;;13.90;99.90;;;;;;4988161;28;20030;-75
2022/10/02 12:32:07;;;;;;;9.23;3.45;;;13.90;99.90;;;;;;4962684;28;20046;-73
2022/10/02 12:34:50;;;;;;;7.18;3.60;;;14.00;99.90;;;;;;4993159;28;20041;-73
2022/10/02 12:37:37;;;;;;;3.88;2.72;;;14.00;99.90;;;;;;4993405;28;20031;-72
2022/10/02 12:40:12;;;;;;;6.25;3.53;;;14.00;99.90;;;;;;4991964;28;20054;-73
2022/10/02 12:43:28;;;;;;;7.05;3.22;;;14.00;99.90;;;;;;4993299;28;20045;-73
2022/10/02 12:46:20;;;;;;;8.85;4.15;;;14.00;99.90;;;;;;4904332;28;20046;-74
2022/10/02 12:49:14;;;;;;;5.68;3.15;;;14.00;99.90;;;;;;4991542;28;20058;-73
2022/10/02 12:52:11;;;;;;;10.73;5.00;;;13.90;99.90;;;;;;4992452;28;20037;-78
2022/10/02 12:55:16;;;;;;;10.77;8.27;;;13.90;99.90;;;;;;4993002;28;20092;-73
2022/10/02 12:57:54;;;;;;;8.88;4.72;;;14.00;99.90;;;;;;4990263;28;20472;-76
2022/10/02 13:00:28;;;;;;;7.60;4.30;;;14.00;99.90;;;;;;4989842;28;20066;-74
2022/10/02 13:03:04;;;;;;;7.05;4.30;;;14.00;99.90;;;;;;4992157;28;20034;-73
2022/10/02 13:06:06;;;;;;;9.10;5.40;;;14.00;99.90;;;;;;4993107;28;20137;-72
2022/10/02 13:08:47;;;;;;;11.13;7.35;;;14.10;99.90;;;;;;4991842;28;20034;-75
2022/10/02 13:11:34;;;;;;;8.52;4.55;;;14.20;99.90;;;;;;4992771;28;20034;-73
2022/10/02 13:14:35;;;;;;;7.55;4.05;;;14.10;99.90;;;;;;4987771;28;20034;-74
2022/10/02 13:17:13;;;;;;;;;;;14.00;99.90;;;;;;4992713;28;20250;-71
2022/10/02 13:19:57;;;;;;;6.15;3.63;;;13.80;99.90;;;;;;4991278;28;19918;-73
2022/10/02 13:22:45;;;;;;;8.18;5.07;;;13.80;99.90;;;;;;4992267;28;20525;-72
2022/10/02 13:25:33;;;;;;;10.05;5.90;;;13.90;99.90;;;;;;4992183;28;20360;-72
2022/10/02 13:28:12;;;;;;;6.07;3.75;;;13.90;99.90;;;;;;4991984;28;20038;-73
2022/10/02 13:31:04;;;;;;;7.05;3.92;;;13.90;99.90;;;;;;4986412;28;20445;-73
2022/10/02 13:34:14;;;;;;;5.75;3.58;;;13.80;99.90;;;;;;4959498;28;20047;-74
2022/10/02 13:37:00;;;;;;;5.75;3.80;;;13.80;99.90;;;;;;4947629;29;20497;-73
2022/10/02 13:39:36;;;;;;;6.15;3.45;;;13.80;99.90;;;;;;4987719;28;20049;-72
2022/10/02 13:42:05;;;;;;;7.18;5.90;;;13.70;99.90;;;;;;4991647;28;20034;-73
2022/10/02 13:44:41;;;;;;;10.57;6.50;;;13.70;99.90;;;;;;4991852;28;20041;-73
2022/10/02 13:47:21;;;;;;;15.65;10.70;;;13.70;99.90;;;;;;4991640;28;20407;-73
2022/10/02 13:50:11;;;;;;;13.23;8.43;;;13.70;99.90;;;;;;4986481;28;20042;-74
2022/10/02 13:52:59;;;;;;;8.75;6.07;;;13.70;99.90;;;;;;4992112;28;20045;-72
2022/10/02 13:55:28;;;;;;;11.13;7.60;;;13.70;99.90;;;;;;4992470;28;20030;-73
2022/10/02 13:58:01;;;;;;;11.35;7.75;;;13.80;99.90;;;;;;4991823;28;20026;-74
2022/10/02 14:00:36;;;;;;;9.90;5.30;;;13.70;99.90;;;;;;4991477;28;20038;-74
2022/10/02 14:03:17;;;;;;;7.10;4.40;;;13.70;99.90;;;;;;4991431;28;20045;-72
2022/10/02 14:05:57;;;;;;;7.63;5.05;;;13.70;99.90;;;;;;4992632;28;20038;-74
2022/10/02 14:08:35;;;;;;;6.67;3.93;;;13.70;99.90;;;;;;4991399;28;20038;-73
2022/10/02 14:11:30;;;;;;;7.13;4.88;;;13.70;99.90;;;;;;4985356;28;20038;-73
2022/10/02 14:14:36;;;;;;;6.90;4.65;;;13.80;99.90;;;;;;4991567;28;20399;-74
2022/10/02 14:17:14;;;;;;;8.10;5.47;;;13.80;99.90;;;;;;4987338;28;20415;-73
2022/10/02 14:20:17;;;;;;;10.88;6.38;;;13.80;99.90;;;;;;4990048;28;20043;-73
2022/10/02 14:22:58;;;;;;;29.52;15.10;;;13.80;99.90;;;;;;4987256;28;20038;-73
2022/10/02 14:25:41;;;;;;;14.00;7.25;;;13.80;99.90;;;;;;4992393;28;20383;-73
2022/10/02 14:28:18;;;;;;;21.55;9.45;;;13.80;99.90;;;;;;4990627;28;20034;-73
2022/10/02 14:31:06;;;;;;;10.60;4.90;;;13.80;99.90;;;;;;4992252;28;20041;-73